createdAt,value
2019-05-15T00:01:05.321Z,6.23
2019-05-15T00:03:33.698Z,5.80
2019-05-15T00:06:02.131Z,6.03
2019-05-15T00:08:30.496Z,4.43
2019-05-15T00:10:58.892Z,6.67
2019-05-15T00:13:28.235Z,7.63
2019-05-15T00:15:58.878Z,6.03
2019-05-15T00:18:28.180Z,6.83
2019-05-15T00:20:59.332Z,9.07
2019-05-15T00:23:28.962Z,4.77
2019-05-15T00:25:58.522Z,4.53
2019-05-15T00:28:28.029Z,4.70
2019-05-15T00:30:58.256Z,8.37
2019-05-15T00:33:28.622Z,7.23
2019-05-15T00:35:58.859Z,5.63
2019-05-15T00:38:27.976Z,5.60
2019-05-15T00:40:58.472Z,8.97
2019-05-15T00:43:28.947Z,9.80
2019-05-15T00:45:58.596Z,7.17
2019-05-15T00:48:29.018Z,10.50
2019-05-15T00:50:58.878Z,18.00
2019-05-15T00:53:28.282Z,9.70
2019-05-15T00:55:58.024Z,12.90
2019-05-15T00:58:28.347Z,10.47
2019-05-15T01:00:59.006Z,7.90
2019-05-15T01:03:27.867Z,7.47
2019-05-15T01:05:58.475Z,9.10
2019-05-15T01:08:28.432Z,8.03
2019-05-15T01:10:58.204Z,7.97
2019-05-15T01:13:28.214Z,17.83
2019-05-15T01:15:58.249Z,8.17
2019-05-15T01:18:29.096Z,11.03
2019-05-15T01:20:58.676Z,7.23
2019-05-15T01:23:28.249Z,11.73
2019-05-15T01:25:58.874Z,13.83
2019-05-15T01:28:28.902Z,16.73
2019-05-15T01:30:59.190Z,9.90
2019-05-15T01:33:28.341Z,6.17
2019-05-15T01:35:58.905Z,15.33
2019-05-15T01:38:28.092Z,10.07
2019-05-15T01:40:58.965Z,14.80
2019-05-15T01:43:28.957Z,10.63
2019-05-15T01:45:58.818Z,11.00
2019-05-15T01:48:28.288Z,9.30
2019-05-15T01:50:58.547Z,9.13
2019-05-15T01:53:28.913Z,8.53
2019-05-15T01:55:58.954Z,8.63
2019-05-15T01:58:28.696Z,13.13
2019-05-15T02:00:58.948Z,13.53
2019-05-15T02:03:28.964Z,10.87
2019-05-15T02:05:58.674Z,15.60
2019-05-15T02:08:28.536Z,13.47
2019-05-15T02:10:58.895Z,28.27
2019-05-15T02:13:28.257Z,16.47
2019-05-15T02:15:58.768Z,10.37
2019-05-15T02:18:28.615Z,12.90
2019-05-15T02:20:58.730Z,8.37
2019-05-15T02:23:28.069Z,6.37
2019-05-15T02:25:58.714Z,11.27
2019-05-15T02:28:28.756Z,7.83
2019-05-15T02:30:58.763Z,8.33
2019-05-15T02:33:29.762Z,8.23
2019-05-15T02:35:59.399Z,8.90
2019-05-15T02:38:29.673Z,10.43
2019-05-15T02:40:59.212Z,6.73
2019-05-15T02:43:29.855Z,8.13
2019-05-15T02:46:00.458Z,7.93
2019-05-15T02:48:28.976Z,7.60
2019-05-15T02:50:58.929Z,8.30
2019-05-15T02:53:30.035Z,8.67
2019-05-15T02:56:00.188Z,21.07
2019-05-15T02:58:29.117Z,9.60
2019-05-15T03:00:59.249Z,8.73
2019-05-15T03:03:29.537Z,15.47
2019-05-15T03:06:00.088Z,8.63
2019-05-15T03:08:29.720Z,10.20
2019-05-15T03:10:59.211Z,10.77
2019-05-15T03:13:29.980Z,12.53
2019-05-15T03:15:59.941Z,16.10
2019-05-15T03:18:29.078Z,13.57
2019-05-15T03:21:00.382Z,12.23
2019-05-15T03:23:29.589Z,12.80
2019-05-15T03:26:02.916Z,21.37
2019-05-15T03:28:29.421Z,9.80
2019-05-15T03:31:33.319Z,10.70
2019-05-15T03:33:35.781Z,14.33
2019-05-15T03:36:02.875Z,10.97
2019-05-15T03:38:29.788Z,13.83
2019-05-15T03:40:59.506Z,12.67
2019-05-15T03:43:29.255Z,14.30
2019-05-15T03:46:01.238Z,17.00
2019-05-15T03:48:28.864Z,17.13
2019-05-15T03:50:59.788Z,16.07
2019-05-15T03:53:29.803Z,16.10
2019-05-15T03:55:58.971Z,16.93
2019-05-15T03:58:28.764Z,16.07
2019-05-15T04:01:00.334Z,15.30
2019-05-15T04:03:29.965Z,14.57
2019-05-15T04:06:00.545Z,15.10
2019-05-15T04:08:29.940Z,13.20
2019-05-15T04:10:59.620Z,15.30
2019-05-15T04:13:30.105Z,17.83
2019-05-15T04:15:59.512Z,15.63
2019-05-15T04:18:29.104Z,15.93
2019-05-15T04:21:00.187Z,17.27
2019-05-15T04:23:30.153Z,17.27
2019-05-15T04:25:59.097Z,16.73
2019-05-15T04:28:29.720Z,15.57
2019-05-15T04:30:59.572Z,19.03
2019-05-15T04:33:29.419Z,18.43
2019-05-15T04:35:58.923Z,22.23
2019-05-15T04:38:29.207Z,15.73
2019-05-15T04:40:59.113Z,15.93
2019-05-15T04:43:30.135Z,17.00
2019-05-15T04:45:59.042Z,13.53
2019-05-15T04:48:29.013Z,13.83
2019-05-15T04:50:58.839Z,21.57
2019-05-15T04:53:32.734Z,18.77
2019-05-15T04:55:59.742Z,15.90
2019-05-15T04:58:29.688Z,13.07
2019-05-15T05:00:59.966Z,12.53
2019-05-15T05:03:29.221Z,12.07
2019-05-15T05:05:59.212Z,19.93
2019-05-15T05:08:29.168Z,10.93
2019-05-15T05:10:59.224Z,16.83
2019-05-15T05:13:28.711Z,12.03
2019-05-15T05:15:58.650Z,15.83
2019-05-15T05:18:29.530Z,17.63
2019-05-15T05:20:57.832Z,12.13
2019-05-15T05:23:28.199Z,11.50
2019-05-15T05:25:58.156Z,13.97
2019-05-15T05:28:28.762Z,14.90
2019-05-15T05:30:58.815Z,11.23
2019-05-15T05:33:28.700Z,10.43
2019-05-15T05:35:58.419Z,11.43
2019-05-15T05:38:28.204Z,14.33
2019-05-15T05:40:58.676Z,8.67
2019-05-15T05:43:27.128Z,8.67
2019-05-15T05:45:55.517Z,11.83
2019-05-15T05:48:23.889Z,8.17
2019-05-15T05:50:52.272Z,10.40
2019-05-15T05:53:21.470Z,12.43
2019-05-15T05:55:52.957Z,16.63
2019-05-15T05:58:20.207Z,9.43
2019-05-15T06:00:49.349Z,14.37
2019-05-15T06:03:19.538Z,8.87
2019-05-15T06:05:49.427Z,10.07
2019-05-15T06:08:19.556Z,10.17
2019-05-15T06:10:49.660Z,7.00
2019-05-15T06:13:18.686Z,7.53
2019-05-15T06:15:48.779Z,8.87
2019-05-15T06:18:19.599Z,9.83
2019-05-15T06:20:49.411Z,11.97
2019-05-15T06:23:23.843Z,8.33
2019-05-15T06:25:49.240Z,15.03
2019-05-15T06:28:19.494Z,7.57
2019-05-15T06:30:48.679Z,6.00
2019-05-15T06:33:18.779Z,9.70
2019-05-15T06:35:49.061Z,8.03
2019-05-15T06:38:19.249Z,8.27
2019-05-15T06:40:49.658Z,16.60
2019-05-15T06:43:19.262Z,8.80
2019-05-15T06:45:49.033Z,9.33
2019-05-15T06:48:18.538Z,6.00
2019-05-15T06:50:49.008Z,8.80
2019-05-15T06:53:19.236Z,6.60
2019-05-15T06:55:48.571Z,11.73
2019-05-15T06:58:19.064Z,10.37
2019-05-15T07:00:48.807Z,7.50
2019-05-15T07:03:24.858Z,9.03
2019-05-15T07:05:50.302Z,7.77
2019-05-15T07:08:18.266Z,3.73
2019-05-15T07:10:48.639Z,5.93
2019-05-15T07:13:18.260Z,24.30
2019-05-15T07:15:49.455Z,12.20
2019-05-15T07:18:19.782Z,25.33
2019-05-15T07:20:48.785Z,17.17
2019-05-15T07:23:18.605Z,16.60
2019-05-15T07:25:49.726Z,10.33
2019-05-15T07:28:18.107Z,7.17
2019-05-15T07:30:49.563Z,4.53
2019-05-15T07:33:28.130Z,7.17
2019-05-15T07:35:49.388Z,6.37
2019-05-15T07:38:18.356Z,6.67
2019-05-15T07:40:55.486Z,8.50
2019-05-15T07:43:18.164Z,10.77
2019-05-15T07:45:53.325Z,10.67
2019-05-15T07:48:18.785Z,5.47
2019-05-15T07:50:49.762Z,2.63
2019-05-15T07:53:19.804Z,5.97
2019-05-15T07:55:49.947Z,7.70
2019-05-15T07:58:21.202Z,4.40
2019-05-15T08:00:49.335Z,8.00
2019-05-15T08:03:18.558Z,5.10
2019-05-15T08:05:56.109Z,4.57
2019-05-15T08:08:18.486Z,6.33
2019-05-15T08:10:48.789Z,7.17
2019-05-15T08:13:18.519Z,3.13
2019-05-15T08:15:48.707Z,7.17
2019-05-15T08:18:18.166Z,8.13
2019-05-15T08:20:49.049Z,4.23
2019-05-15T08:23:19.359Z,9.13
2019-05-15T08:25:48.499Z,3.97
2019-05-15T08:28:18.954Z,2.73
2019-05-15T08:30:49.507Z,2.60
2019-05-15T08:33:17.950Z,2.37
2019-05-15T08:35:51.150Z,2.10
2019-05-15T08:38:18.227Z,2.13
2019-05-15T08:40:48.888Z,3.37
2019-05-15T08:43:18.364Z,1.87
2019-05-15T08:45:49.488Z,2.57
2019-05-15T08:48:18.521Z,3.43
2019-05-15T08:50:48.865Z,1.00
2019-05-15T08:53:19.450Z,2.93
2019-05-15T08:55:48.517Z,3.53
2019-05-15T08:58:20.419Z,5.17
2019-05-15T09:00:51.825Z,1.80
2019-05-15T09:03:18.317Z,1.60
2019-05-15T09:05:48.610Z,2.60
2019-05-15T09:08:19.436Z,1.27
2019-05-15T09:10:49.881Z,2.53
2019-05-15T09:13:18.982Z,2.33
2019-05-15T09:15:48.777Z,4.20
2019-05-15T09:18:19.923Z,2.93
2019-05-15T09:20:49.126Z,10.73
2019-05-15T09:23:19.274Z,3.23
2019-05-15T09:25:49.373Z,3.33
2019-05-15T09:28:19.010Z,1.07
2019-05-15T09:30:48.504Z,4.50
2019-05-15T09:33:19.562Z,4.53
2019-05-15T09:35:49.078Z,3.53
2019-05-15T09:38:18.467Z,4.70
2019-05-15T09:40:50.292Z,5.07
2019-05-15T09:43:18.188Z,1.53
2019-05-15T09:45:49.431Z,3.80
2019-05-15T09:48:19.874Z,3.60
2019-05-15T09:50:49.376Z,2.60
2019-05-15T09:53:18.945Z,2.43
2019-05-15T09:55:49.449Z,1.60
2019-05-15T09:58:20.227Z,4.17
2019-05-15T10:00:52.249Z,1.73
2019-05-15T10:03:19.186Z,1.37
2019-05-15T10:05:48.245Z,1.83
2019-05-15T10:08:16.917Z,2.73
2019-05-15T10:10:45.304Z,7.73
2019-05-15T10:13:13.683Z,3.70
2019-05-15T10:15:42.063Z,0.90
2019-05-15T10:18:10.453Z,1.83
2019-05-15T10:20:38.832Z,2.17
2019-05-15T10:23:08.770Z,5.00
2019-05-15T10:25:38.973Z,5.50
2019-05-15T10:28:09.908Z,1.83
2019-05-15T10:30:39.419Z,8.83
2019-05-15T10:33:08.648Z,3.43
2019-05-15T10:35:39.237Z,3.33
2019-05-15T10:38:08.800Z,2.80
2019-05-15T10:40:41.070Z,3.90
2019-05-15T10:43:09.175Z,2.83
2019-05-15T10:45:42.269Z,3.70
2019-05-15T10:48:09.560Z,1.03
2019-05-15T10:50:38.837Z,5.17
2019-05-15T10:53:11.006Z,1.37
2019-05-15T10:55:39.537Z,2.03
2019-05-15T10:58:14.094Z,3.07
2019-05-15T11:00:37.875Z,2.00
2019-05-15T11:03:08.688Z,2.43
2019-05-15T11:05:44.533Z,2.87
2019-05-15T11:08:08.286Z,4.17
2019-05-15T11:10:38.610Z,7.00
2019-05-15T11:13:08.801Z,2.23
2019-05-15T11:15:40.498Z,1.37
2019-05-15T11:18:09.104Z,2.27
2019-05-15T11:20:40.873Z,2.73
2019-05-15T11:23:08.774Z,2.97
2019-05-15T11:25:37.805Z,2.70
2019-05-15T11:28:08.217Z,6.60
2019-05-15T11:30:39.043Z,4.93
2019-05-15T11:33:09.357Z,2.33
2019-05-15T11:35:39.090Z,2.40
2019-05-15T11:38:09.621Z,1.17
2019-05-15T11:40:38.835Z,1.30
2019-05-15T11:43:08.501Z,6.20
2019-05-15T11:45:38.972Z,1.87
2019-05-15T11:48:09.025Z,2.03
2019-05-15T11:50:39.987Z,1.20
2019-05-15T11:53:08.700Z,2.00
2019-05-15T11:55:38.728Z,3.00
2019-05-15T11:58:09.388Z,1.87
2019-05-15T12:00:38.434Z,2.60
2019-05-15T12:03:08.984Z,4.73
2019-05-15T12:05:38.587Z,2.50
2019-05-15T12:08:09.076Z,2.07
2019-05-15T12:10:38.940Z,2.53
2019-05-15T12:13:09.777Z,4.27
2019-05-15T12:15:38.892Z,4.93
2019-05-15T12:18:08.854Z,2.23
2019-05-15T12:20:38.957Z,2.97
2019-05-15T12:23:09.047Z,2.27
2019-05-15T12:25:39.356Z,3.27
2019-05-15T12:30:40.197Z,3.10
2019-05-15T12:33:09.301Z,3.40
2019-05-15T12:35:39.764Z,3.97
2019-05-15T12:38:10.075Z,4.90
2019-05-15T13:00:39.536Z,1.97
2019-05-15T13:03:09.118Z,2.60
2019-05-15T13:05:39.286Z,3.10
2019-05-15T13:08:08.537Z,5.43
2019-05-15T13:10:38.469Z,2.80
2019-05-15T13:13:09.574Z,7.17
2019-05-15T13:15:40.992Z,4.20
2019-05-15T13:18:13.409Z,4.63
2019-05-15T13:20:38.403Z,5.93
2019-05-15T13:23:08.595Z,2.67
2019-05-15T13:25:39.510Z,8.87
2019-05-15T13:28:08.887Z,4.63
2019-05-15T13:30:40.862Z,6.20
2019-05-15T13:33:10.078Z,2.63
2019-05-15T13:35:38.081Z,2.15
2019-05-15T13:38:09.523Z,3.90
2019-05-15T13:40:38.919Z,2.08
2019-05-15T13:43:08.385Z,4.80
2019-05-15T13:45:38.638Z,3.83
2019-05-15T13:48:08.908Z,2.70
2019-05-15T13:50:40.454Z,2.87
2019-05-15T13:53:10.606Z,5.42
2019-05-15T13:55:42.083Z,2.35
2019-05-15T13:58:08.739Z,2.22
2019-05-15T14:00:39.112Z,1.30
2019-05-15T14:03:09.187Z,2.95
2019-05-15T14:05:38.344Z,2.67
2019-05-15T14:08:07.202Z,3.12
2019-05-15T14:10:38.318Z,4.97
2019-05-15T14:13:05.896Z,1.40
2019-05-15T14:15:34.280Z,9.93
2019-05-15T14:18:02.654Z,4.03
2019-05-15T14:20:31.031Z,2.75
2019-05-15T14:22:59.400Z,5.55
2019-05-15T14:25:27.781Z,4.67
2019-05-15T14:27:59.118Z,2.25
2019-05-15T14:30:29.023Z,6.53
2019-05-15T14:32:59.375Z,3.58
2019-05-15T14:35:26.471Z,3.58
2019-05-15T14:38:03.582Z,3.02
2019-05-15T14:40:24.947Z,1.67
2019-05-15T14:42:53.348Z,4.17
2019-05-15T14:45:21.716Z,2.62
2019-05-15T14:47:50.126Z,3.20
2019-05-15T14:50:18.615Z,5.42
2019-05-15T14:52:47.938Z,4.30
2019-05-15T14:55:17.836Z,4.08
2019-05-15T14:57:48.523Z,3.35
2019-05-15T15:00:19.830Z,4.62
2019-05-15T15:02:49.486Z,6.83
2019-05-15T15:05:21.462Z,1.98
2019-05-15T15:07:49.113Z,4.58
2019-05-15T15:10:20.045Z,6.42
2019-05-15T15:12:50.031Z,1.62
2019-05-15T15:15:18.367Z,1.92
2019-05-15T15:17:49.048Z,5.65
2019-05-15T15:20:17.927Z,2.63
2019-05-15T15:22:48.581Z,4.83
2019-05-15T15:25:17.340Z,9.03
2019-05-15T15:27:47.819Z,4.13
2019-05-15T15:30:18.781Z,5.30
2019-05-15T15:32:48.820Z,2.10
2019-05-15T15:35:16.236Z,4.27
2019-05-15T15:37:44.607Z,1.77
2019-05-15T15:40:13.063Z,2.07
2019-05-15T15:42:41.442Z,2.43
2019-05-15T15:45:12.251Z,3.80
2019-05-15T15:47:40.633Z,1.67
2019-05-15T15:50:09.877Z,1.33
2019-05-15T15:52:38.806Z,1.30
2019-05-15T15:55:09.125Z,2.30
2019-05-15T15:57:39.870Z,3.07
2019-05-15T16:00:10.271Z,2.00
2019-05-15T16:02:41.078Z,2.63
2019-05-15T16:05:09.860Z,3.40
2019-05-15T16:07:38.571Z,2.40
2019-05-15T16:10:08.771Z,6.17
2019-05-15T16:12:38.735Z,2.33
2019-05-15T16:15:09.082Z,3.47
2019-05-15T16:17:38.410Z,3.53
2019-05-15T16:20:09.140Z,4.57
2019-05-15T16:22:38.292Z,5.37
2019-05-15T16:25:09.763Z,5.97
2019-05-15T16:27:38.560Z,4.17
2019-05-15T16:30:08.664Z,1.73
2019-05-15T16:32:38.790Z,10.33
2019-05-15T16:35:09.507Z,1.70
2019-05-15T16:37:38.803Z,4.10
2019-05-15T16:40:08.692Z,8.13
2019-05-15T16:42:38.475Z,2.47
2019-05-15T16:45:09.526Z,4.37
2019-05-15T16:47:38.917Z,4.97
2019-05-15T16:50:08.765Z,1.97
2019-05-15T16:52:38.732Z,3.67
2019-05-15T16:55:09.203Z,3.73
2019-05-15T16:57:38.704Z,4.40
2019-05-15T17:00:09.564Z,4.13
2019-05-15T17:02:39.689Z,3.20
2019-05-15T17:05:09.421Z,3.20
2019-05-15T17:07:38.719Z,17.23
2019-05-15T17:10:08.603Z,5.70
2019-05-15T17:12:38.780Z,4.30
2019-05-15T17:15:09.619Z,4.60
2019-05-15T17:17:38.698Z,7.70
2019-05-15T17:20:09.713Z,4.40
2019-05-15T17:22:38.608Z,9.73
2019-05-15T17:25:09.370Z,3.80
2019-05-15T17:27:37.535Z,6.40
2019-05-15T17:30:09.343Z,2.97
2019-05-15T17:32:38.860Z,4.40
2019-05-15T17:35:09.745Z,2.63
2019-05-15T17:37:37.984Z,3.57
2019-05-15T17:40:08.076Z,2.17
2019-05-15T17:42:38.805Z,4.67
2019-05-15T17:45:08.987Z,5.53
2019-05-15T17:47:38.837Z,1.90
2019-05-15T17:50:09.509Z,1.93
2019-05-15T17:52:38.710Z,4.90
2019-05-15T17:55:07.771Z,2.30
2019-05-15T17:57:38.530Z,2.80
2019-05-15T18:00:12.084Z,2.73
2019-05-15T18:02:38.372Z,2.10
2019-05-15T18:05:07.460Z,3.33
2019-05-15T18:07:35.835Z,4.30
2019-05-15T18:10:04.855Z,3.63
2019-05-15T18:12:33.237Z,4.73
2019-05-15T18:15:01.890Z,1.93
2019-05-15T18:17:30.556Z,3.00
2019-05-15T18:19:58.939Z,3.73
2019-05-15T18:22:27.692Z,4.03
2019-05-15T18:24:58.145Z,4.20
2019-05-15T18:27:26.171Z,1.77
2019-05-15T18:29:54.548Z,6.70
2019-05-15T18:32:22.924Z,5.60
2019-05-15T18:34:51.312Z,3.43
2019-05-15T18:37:19.686Z,6.37
2019-05-15T18:40:02.208Z,4.00
2019-05-15T18:42:18.730Z,6.33
2019-05-15T18:44:48.182Z,3.93
2019-05-15T18:47:18.866Z,1.20
2019-05-15T18:50:03.714Z,3.70
2019-05-15T18:52:18.210Z,6.80
2019-05-15T18:54:48.024Z,1.47
2019-05-15T18:57:18.506Z,3.47
2019-05-15T18:59:48.694Z,2.67
2019-05-15T19:02:19.063Z,6.10
2019-05-15T19:04:49.076Z,2.57
2019-05-15T19:07:22.820Z,5.97
2019-05-15T19:09:51.756Z,1.73
2019-05-15T19:12:20.143Z,3.30
2019-05-15T19:14:49.390Z,4.17
2019-05-15T19:17:18.804Z,1.90
2019-05-15T19:19:48.173Z,8.53
2019-05-15T19:22:19.094Z,4.60
2019-05-15T19:24:48.485Z,8.03
2019-05-15T19:27:18.736Z,2.13
2019-05-15T19:29:48.363Z,2.17
2019-05-15T19:32:17.715Z,4.17
2019-05-15T19:34:48.193Z,3.10
2019-05-15T19:37:18.336Z,2.67
2019-05-15T19:39:47.956Z,2.57
2019-05-15T19:42:18.106Z,5.87
2019-05-15T19:44:48.473Z,7.43
2019-05-15T19:47:18.527Z,6.97
2019-05-15T19:49:48.366Z,4.30
2019-05-15T19:52:17.867Z,3.47
2019-05-15T19:54:48.465Z,2.90
2019-05-15T19:57:18.479Z,3.43
2019-05-15T19:59:48.706Z,3.30
2019-05-15T20:02:18.001Z,2.67
2019-05-15T20:04:46.599Z,5.83
2019-05-15T20:07:14.975Z,4.37
2019-05-15T20:09:43.353Z,3.43
2019-05-15T20:12:11.789Z,3.90
2019-05-15T20:14:40.444Z,4.73
2019-05-15T20:17:08.816Z,4.40
2019-05-15T20:19:38.277Z,8.73
2019-05-15T20:22:08.016Z,5.47
2019-05-15T20:24:38.132Z,10.73
2019-05-15T20:27:08.558Z,10.43
2019-05-15T20:29:38.349Z,5.07
2019-05-15T20:32:06.970Z,5.57
2019-05-15T20:34:37.778Z,2.70
2019-05-15T20:37:05.556Z,6.60
2019-05-15T20:39:33.929Z,4.07
2019-05-15T20:42:02.316Z,5.20
2019-05-15T20:44:30.693Z,2.60
2019-05-15T20:46:59.192Z,2.50
2019-05-15T20:49:28.536Z,3.10
2019-05-15T20:51:58.226Z,4.03
2019-05-15T20:54:28.459Z,4.67
2019-05-15T20:56:58.322Z,4.83
2019-05-15T20:59:26.916Z,6.40
2019-05-15T21:01:55.291Z,11.43
2019-05-15T21:04:24.629Z,6.77
2019-05-15T21:06:53.719Z,6.83
2019-05-15T21:09:22.092Z,3.30
2019-05-15T21:11:50.459Z,7.60
2019-05-15T21:14:18.835Z,5.53
2019-05-15T21:16:48.491Z,5.23
2019-05-15T21:19:18.791Z,4.77
2019-05-15T21:21:48.033Z,5.90
2019-05-15T21:24:18.205Z,4.67
2019-05-15T21:26:48.865Z,4.00
2019-05-15T21:29:18.536Z,8.03
2019-05-15T21:31:49.073Z,3.87
2019-05-15T21:34:32.277Z,6.60
2019-05-15T21:36:48.345Z,3.53
2019-05-15T21:39:17.540Z,3.97
2019-05-15T21:41:45.915Z,4.00
2019-05-15T21:44:14.353Z,6.03
2019-05-15T21:46:42.799Z,3.47
2019-05-15T21:49:11.167Z,3.43
2019-05-15T21:51:39.527Z,2.83
2019-05-15T21:54:09.920Z,2.63
2019-05-15T21:56:38.727Z,4.93
2019-05-15T21:59:08.219Z,5.30
2019-05-15T22:01:39.489Z,5.83
2019-05-15T22:04:06.991Z,3.73
2019-05-15T22:06:35.366Z,3.73
2019-05-15T22:09:07.787Z,5.63
2019-05-15T22:11:38.730Z,4.70
2019-05-15T22:14:08.044Z,5.17
2019-05-15T22:16:59.749Z,4.47
2019-05-15T22:19:45.457Z,7.90
2019-05-15T22:22:14.025Z,4.53
2019-05-15T22:24:42.380Z,3.50
2019-05-15T22:27:10.750Z,4.70
2019-05-15T22:29:39.196Z,10.53
2019-05-15T22:32:08.188Z,9.60
2019-05-15T22:34:37.648Z,5.20
2019-05-15T22:37:06.019Z,4.57
2019-05-15T22:39:38.412Z,6.83
2019-05-15T22:42:08.222Z,3.77
2019-05-15T22:44:38.381Z,8.20
2019-05-15T22:47:06.394Z,9.23
2019-05-15T22:49:34.763Z,4.60
2019-05-15T22:52:03.171Z,5.03
2019-05-15T22:54:31.535Z,6.83
2019-05-15T22:57:00.187Z,5.90
2019-05-15T22:59:28.579Z,2.63
2019-05-15T23:01:58.214Z,5.73
2019-05-15T23:04:28.645Z,5.73
2019-05-15T23:06:56.891Z,4.83
2019-05-15T23:09:25.271Z,6.80
2019-05-15T23:11:53.639Z,4.77
2019-05-15T23:14:22.188Z,5.60
2019-05-15T23:16:50.559Z,4.77
2019-05-15T23:19:18.928Z,6.47
2019-05-15T23:21:48.629Z,6.30
2019-05-15T23:24:18.865Z,5.07
2019-05-15T23:26:47.742Z,9.33
2019-05-15T23:29:16.256Z,5.90
2019-05-15T23:31:44.643Z,5.17
2019-05-15T23:34:13.003Z,4.93
2019-05-15T23:36:41.371Z,10.93
2019-05-15T23:39:09.755Z,3.47
2019-05-15T23:41:38.119Z,5.80
2019-05-15T23:44:08.203Z,8.83
2019-05-15T23:46:38.262Z,5.97
2019-05-15T23:49:08.334Z,6.97
2019-05-15T23:51:38.483Z,11.70
2019-05-15T23:54:08.262Z,5.63
2019-05-15T23:56:38.732Z,5.63
2019-05-15T23:59:08.418Z,10.67
